createdAt,value
2023-07-10T00:02:02.677Z,91.98
2023-07-10T00:04:31.871Z,90.93
2023-07-10T00:06:59.778Z,92.16
2023-07-10T00:09:27.558Z,94.27
2023-07-10T00:11:55.636Z,100.00
2023-07-10T00:14:25.136Z,100.00
2023-07-10T00:16:54.295Z,95.40
2023-07-10T00:19:24.100Z,94.04
2023-07-10T00:21:54.363Z,96.22
2023-07-10T00:24:22.149Z,100.00
2023-07-10T00:26:49.926Z,100.00
2023-07-10T00:29:22.729Z,98.85
2023-07-10T00:31:50.481Z,95.63
2023-07-10T00:34:19.568Z,95.85
2023-07-10T00:36:52.667Z,96.23
2023-07-10T00:39:25.522Z,92.13
2023-07-10T00:41:57.692Z,96.04
2023-07-10T00:44:30.781Z,100.00
2023-07-10T00:47:01.603Z,100.00
2023-07-10T00:49:40.424Z,100.00
2023-07-10T00:52:16.534Z,100.00
2023-07-10T00:54:49.782Z,100.00
2023-07-10T00:57:21.703Z,100.00
2023-07-10T00:59:51.820Z,100.00
2023-07-10T01:02:25.151Z,100.00
2023-07-10T01:05:03.596Z,100.00
2023-07-10T01:07:35.840Z,100.00
2023-07-10T01:10:09.157Z,100.00
2023-07-10T01:12:38.059Z,100.00
2023-07-10T01:15:07.513Z,100.00
2023-07-10T01:17:37.083Z,99.34
2023-07-10T01:20:22.572Z,100.00
2023-07-10T01:22:51.752Z,100.00
2023-07-10T01:25:19.639Z,100.00
2023-07-10T01:27:47.661Z,100.00
2023-07-10T01:30:23.586Z,100.00
2023-07-10T01:32:52.104Z,100.00
2023-07-10T01:35:20.654Z,100.00
2023-07-10T01:37:48.489Z,100.00
2023-07-10T01:40:24.569Z,100.00
2023-07-10T01:42:52.388Z,100.00
2023-07-10T01:45:20.549Z,100.00
2023-07-10T01:47:49.476Z,100.00
2023-07-10T01:50:17.379Z,100.00
2023-07-10T01:52:45.302Z,100.00
2023-07-10T01:55:15.087Z,100.00
2023-07-10T01:57:44.185Z,100.00
2023-07-10T02:00:13.572Z,100.00
2023-07-10T02:02:41.454Z,100.00
2023-07-10T02:05:10.097Z,100.00
2023-07-10T02:07:38.024Z,100.00
2023-07-10T02:10:06.449Z,100.00
2023-07-10T02:12:34.240Z,100.00
2023-07-10T02:15:07.010Z,100.00
2023-07-10T02:17:34.893Z,100.00
2023-07-10T02:20:02.896Z,100.00
2023-07-10T02:22:30.655Z,100.00
2023-07-10T02:24:58.407Z,100.00
2023-07-10T02:27:26.280Z,100.00
2023-07-10T02:29:54.050Z,100.00
2023-07-10T02:32:23.285Z,100.00
2023-07-10T02:34:51.197Z,100.00
2023-07-10T02:37:18.966Z,100.00
2023-07-10T02:39:46.713Z,100.00
2023-07-10T02:42:14.459Z,100.00
2023-07-10T02:44:42.251Z,100.00
2023-07-10T02:47:10.076Z,100.00
2023-07-10T02:49:39.240Z,100.00
2023-07-10T02:52:07.529Z,100.00
2023-07-10T02:54:35.259Z,100.00
2023-07-10T02:57:03.142Z,100.00
2023-07-10T02:59:31.228Z,100.00
2023-07-10T03:02:01.089Z,100.00
2023-07-10T03:04:28.894Z,100.00
2023-07-10T03:06:58.051Z,100.00
2023-07-10T03:09:25.811Z,100.00
2023-07-10T03:11:53.582Z,100.00
2023-07-10T03:14:21.425Z,100.00
2023-07-10T03:16:49.808Z,100.00
2023-07-10T03:19:17.604Z,100.00
2023-07-10T03:21:45.388Z,100.00
2023-07-10T03:24:14.568Z,100.00
2023-07-10T03:26:42.850Z,100.00
2023-07-10T03:29:13.664Z,100.00
2023-07-10T03:31:41.608Z,100.00
2023-07-10T03:34:09.862Z,100.00
2023-07-10T03:36:37.636Z,100.00
2023-07-10T03:39:05.566Z,100.00
2023-07-10T03:41:35.444Z,100.00
2023-07-10T03:44:03.914Z,100.00
2023-07-10T03:46:31.846Z,100.00
2023-07-10T03:48:59.781Z,100.00
2023-07-10T03:51:27.611Z,100.00
2023-07-10T03:53:55.543Z,100.00
2023-07-10T03:56:23.367Z,100.00
2023-07-10T03:58:52.516Z,100.00
2023-07-10T04:01:20.345Z,100.00
2023-07-10T04:03:48.265Z,100.00
2023-07-10T04:06:20.303Z,100.00
2023-07-10T04:08:49.236Z,100.00
2023-07-10T04:11:20.384Z,100.00
2023-07-10T04:13:48.434Z,100.00
2023-07-10T04:16:20.496Z,100.00
2023-07-10T04:18:50.363Z,100.00
2023-07-10T04:21:21.179Z,100.00
2023-07-10T04:23:49.196Z,100.00
2023-07-10T04:26:19.245Z,100.00
2023-07-10T04:28:48.511Z,100.00
2023-07-10T04:31:16.485Z,100.00
2023-07-10T04:33:46.077Z,100.00
2023-07-10T04:36:13.852Z,100.00
2023-07-10T04:38:41.775Z,100.00
2023-07-10T04:41:13.960Z,100.00
2023-07-10T04:43:41.902Z,100.00
2023-07-10T04:46:13.675Z,100.00
2023-07-10T04:48:44.095Z,100.00
2023-07-10T04:51:14.750Z,100.00
2023-07-10T04:53:46.032Z,100.00
2023-07-10T04:56:15.538Z,100.00
2023-07-10T04:58:51.955Z,100.00
2023-07-10T05:01:20.659Z,100.00
2023-07-10T05:03:48.840Z,100.00
2023-07-10T05:06:18.827Z,100.00
2023-07-10T05:08:47.102Z,100.00
2023-07-10T05:11:15.583Z,100.00
2023-07-10T05:13:43.586Z,100.00
2023-07-10T05:16:11.806Z,100.00
2023-07-10T05:18:39.631Z,100.00
2023-07-10T05:21:07.632Z,100.00
2023-07-10T05:23:37.535Z,100.00
2023-07-10T05:26:07.349Z,100.00
2023-07-10T05:28:37.004Z,100.00
2023-07-10T05:31:07.616Z,100.00
2023-07-10T05:33:38.035Z,100.00
2023-07-10T05:36:09.193Z,100.00
2023-07-10T05:38:39.143Z,100.00
2023-07-10T05:41:07.423Z,100.00
2023-07-10T05:43:36.749Z,100.00
2023-07-10T05:46:06.066Z,100.00
2023-07-10T05:48:34.694Z,100.00
2023-07-10T05:51:02.797Z,100.00
2023-07-10T05:53:30.800Z,100.00
2023-07-10T05:56:00.197Z,100.00
2023-07-10T05:58:30.118Z,100.00
2023-07-10T06:00:59.684Z,100.00
2023-07-10T06:03:28.187Z,100.00
2023-07-10T06:05:57.454Z,100.00
2023-07-10T06:08:26.591Z,100.00
2023-07-10T06:10:55.433Z,100.00
2023-07-10T06:13:25.098Z,100.00
2023-07-10T06:15:56.202Z,100.00
2023-07-10T06:18:25.174Z,100.00
2023-07-10T06:20:54.314Z,100.00
2023-07-10T06:23:22.366Z,100.00
2023-07-10T06:25:50.188Z,100.00
2023-07-10T06:28:18.714Z,100.00
2023-07-10T06:30:55.802Z,100.00
2023-07-10T06:33:23.652Z,100.00
2023-07-10T06:35:51.469Z,100.00
2023-07-10T06:38:19.582Z,100.00
2023-07-10T06:40:48.864Z,100.00
2023-07-10T06:43:17.205Z,100.00
2023-07-10T06:45:46.080Z,100.00
2023-07-10T06:48:15.661Z,100.00
2023-07-10T06:50:48.160Z,100.00
2023-07-10T06:53:25.737Z,100.00
2023-07-10T06:55:56.386Z,100.00
2023-07-10T06:58:25.572Z,100.00
2023-07-10T07:00:54.097Z,100.00
2023-07-10T07:03:23.975Z,100.00
2023-07-10T07:05:51.899Z,100.00
2023-07-10T07:08:19.769Z,100.00
2023-07-10T07:10:48.371Z,100.00
2023-07-10T07:13:17.248Z,100.00
2023-07-10T07:15:49.605Z,100.00
2023-07-10T07:18:17.377Z,100.00
2023-07-10T07:20:46.600Z,100.00
2023-07-10T07:23:14.456Z,100.00
2023-07-10T07:25:42.985Z,100.00
2023-07-10T07:28:10.947Z,100.00
2023-07-10T07:30:38.826Z,100.00
2023-07-10T07:33:06.639Z,100.00
2023-07-10T07:35:34.454Z,100.00
2023-07-10T07:38:03.740Z,100.00
2023-07-10T07:40:31.546Z,100.00
2023-07-10T07:42:59.389Z,100.00
2023-07-10T07:45:27.172Z,100.00
2023-07-10T07:47:55.023Z,100.00
2023-07-10T07:50:22.958Z,100.00
2023-07-10T07:52:50.771Z,100.00
2023-07-10T07:55:20.372Z,100.00
2023-07-10T07:57:48.185Z,100.00
2023-07-10T08:00:17.296Z,100.00
2023-07-10T08:02:46.059Z,100.00
2023-07-10T08:05:32.940Z,100.00
2023-07-10T08:08:01.671Z,100.00
2023-07-10T08:10:34.629Z,100.00
2023-07-10T08:13:04.244Z,100.00
2023-07-10T08:15:32.083Z,100.00
2023-07-10T08:17:59.931Z,100.00
2023-07-10T08:20:27.717Z,100.00
2023-07-10T08:22:55.500Z,100.00
2023-07-10T08:25:23.412Z,100.00
2023-07-10T08:27:52.809Z,100.00
2023-07-10T08:30:20.880Z,100.00
2023-07-10T08:32:48.855Z,95.55
2023-07-10T08:35:18.606Z,92.03
2023-07-10T08:37:46.470Z,96.82
2023-07-10T08:40:19.030Z,85.82
2023-07-10T08:42:47.171Z,87.60
2023-07-10T08:45:32.371Z,80.64
2023-07-10T08:48:10.074Z,83.19
2023-07-10T08:50:39.801Z,71.78
2023-07-10T08:53:12.356Z,86.46
2023-07-10T08:55:49.946Z,80.95
2023-07-10T08:58:21.407Z,78.99
2023-07-10T09:00:53.049Z,75.57
2023-07-10T09:03:39.476Z,78.48
2023-07-10T09:06:15.379Z,68.52
2023-07-10T09:08:43.765Z,78.23
2023-07-10T09:11:13.764Z,67.31
2023-07-10T09:13:46.255Z,68.41
2023-07-10T09:16:19.982Z,75.05
2023-07-10T09:18:53.919Z,70.73
2023-07-10T09:21:26.250Z,67.50
2023-07-10T09:23:54.118Z,62.56
2023-07-10T09:26:27.942Z,63.15
2023-07-10T09:29:02.626Z,61.80
2023-07-10T09:31:44.976Z,61.42
2023-07-10T09:34:13.499Z,57.15
2023-07-10T09:36:41.362Z,57.90
2023-07-10T09:39:09.684Z,54.08
2023-07-10T09:41:39.617Z,56.48
2023-07-10T09:44:19.050Z,54.57
2023-07-10T09:46:51.150Z,56.31
2023-07-10T09:49:21.731Z,56.84
2023-07-10T09:51:57.803Z,58.45
2023-07-10T09:54:26.548Z,57.34
2023-07-10T09:56:55.926Z,62.49
2023-07-10T09:59:27.257Z,70.85
2023-07-10T10:01:57.429Z,75.20
2023-07-10T10:04:27.173Z,70.65
2023-07-10T10:07:02.987Z,81.57
2023-07-10T10:09:34.927Z,67.16
2023-07-10T10:12:05.816Z,60.87
2023-07-10T10:14:43.070Z,55.75
2023-07-10T10:17:17.310Z,55.30
2023-07-10T10:19:49.617Z,56.74
2023-07-10T10:22:18.325Z,53.62
2023-07-10T10:24:48.070Z,51.49
2023-07-10T10:27:30.846Z,54.84
2023-07-10T10:30:13.419Z,52.95
2023-07-10T10:32:50.234Z,52.34
2023-07-10T10:35:28.387Z,51.52
2023-07-10T10:38:06.643Z,55.14
2023-07-10T10:40:42.761Z,61.36
2023-07-10T10:43:38.884Z,56.53
2023-07-10T10:46:15.323Z,55.40
2023-07-10T10:48:52.894Z,51.61
2023-07-10T10:51:30.421Z,51.00
2023-07-10T10:54:12.712Z,52.37
2023-07-10T10:56:58.196Z,49.83
2023-07-10T10:59:40.343Z,44.03
2023-07-10T11:02:27.738Z,46.40
2023-07-10T11:05:12.617Z,45.22
2023-07-10T11:07:43.092Z,45.58
2023-07-10T11:10:17.040Z,42.84
2023-07-10T11:12:45.438Z,42.16
2023-07-10T11:15:21.198Z,42.42
2023-07-10T11:17:52.472Z,45.85
2023-07-10T11:20:23.221Z,45.94
2023-07-10T11:22:52.452Z,47.88
2023-07-10T11:25:37.181Z,42.70
2023-07-10T11:28:18.913Z,42.61
2023-07-10T11:30:46.812Z,42.73
2023-07-10T11:33:19.640Z,41.06
2023-07-10T11:36:16.986Z,40.28
2023-07-10T11:39:12.509Z,39.82
2023-07-10T11:42:01.599Z,38.73
2023-07-10T11:44:41.967Z,36.99
2023-07-10T11:47:24.107Z,36.46
2023-07-10T11:50:24.710Z,37.56
2023-07-10T11:53:09.144Z,36.17
2023-07-10T11:55:47.216Z,38.29
2023-07-10T11:58:26.468Z,36.73
2023-07-10T12:01:15.843Z,38.80
2023-07-10T12:03:44.115Z,39.07
2023-07-10T12:06:17.155Z,32.52
2023-07-10T12:08:47.865Z,35.03
2023-07-10T12:11:32.733Z,34.54
2023-07-10T12:14:10.673Z,34.27
2023-07-10T12:16:58.761Z,33.26
2023-07-10T12:19:37.018Z,34.13
2023-07-10T12:22:15.124Z,35.17
2023-07-10T12:24:50.333Z,34.02
2023-07-10T12:28:17.743Z,34.90
2023-07-10T12:30:16.179Z,38.34
2023-07-10T12:32:44.820Z,36.59
2023-07-10T12:35:18.350Z,33.38
2023-07-10T12:37:50.038Z,34.44
2023-07-10T12:40:20.376Z,36.93
2023-07-10T12:42:48.753Z,34.66
2023-07-10T12:45:29.462Z,36.51
2023-07-10T12:48:06.892Z,33.94
2023-07-10T12:50:41.945Z,34.10
2023-07-10T12:53:18.611Z,33.67
2023-07-10T12:55:55.903Z,33.80
2023-07-10T12:58:34.925Z,35.99
2023-07-10T13:01:18.129Z,31.70
2023-07-10T13:03:46.429Z,32.11
2023-07-10T13:06:19.433Z,31.57
2023-07-10T13:08:48.953Z,33.03
2023-07-10T13:11:39.652Z,31.54
2023-07-10T13:14:15.313Z,31.93
2023-07-10T13:16:46.225Z,33.28
2023-07-10T13:19:14.127Z,33.59
2023-07-10T13:21:41.898Z,32.88
2023-07-10T13:24:09.955Z,29.78
2023-07-10T13:26:39.313Z,33.50
2023-07-10T13:29:12.955Z,33.97
2023-07-10T13:31:40.878Z,31.68
2023-07-10T13:34:11.107Z,34.20
2023-07-10T13:36:39.166Z,33.24
2023-07-10T13:39:14.567Z,32.43
2023-07-10T13:41:44.202Z,31.83
2023-07-10T13:44:12.394Z,30.17
2023-07-10T13:46:42.101Z,34.60
2023-07-10T13:49:13.779Z,31.20
2023-07-10T13:51:42.159Z,31.84
2023-07-10T13:54:10.522Z,33.75
2023-07-10T13:56:41.043Z,33.74
2023-07-10T13:59:15.118Z,35.17
2023-07-10T14:01:43.160Z,32.06
2023-07-10T14:04:11.357Z,32.94
2023-07-10T14:06:42.588Z,35.04
2023-07-10T14:09:14.464Z,31.43
2023-07-10T14:11:43.630Z,36.28
2023-07-10T14:14:17.317Z,33.14
2023-07-10T14:16:46.321Z,30.57
2023-07-10T14:19:16.993Z,32.81
2023-07-10T14:21:44.850Z,34.08
2023-07-10T14:24:12.788Z,35.65
2023-07-10T14:26:40.682Z,34.40
2023-07-10T14:29:08.651Z,35.50
2023-07-10T14:31:38.938Z,35.11
2023-07-10T14:34:06.584Z,36.13
2023-07-10T14:36:34.358Z,35.53
2023-07-10T14:39:02.237Z,34.91
2023-07-10T14:41:30.035Z,34.92
2023-07-10T14:43:58.700Z,35.46
2023-07-10T14:46:31.996Z,40.00
2023-07-10T14:49:02.453Z,37.12
2023-07-10T14:51:30.288Z,36.01
2023-07-10T14:53:58.332Z,34.96
2023-07-10T14:56:26.091Z,35.80
2023-07-10T14:58:54.078Z,34.40
2023-07-10T15:01:21.992Z,35.20
2023-07-10T15:03:49.855Z,35.75
2023-07-10T15:06:26.852Z,35.89
2023-07-10T15:08:54.807Z,37.53
2023-07-10T15:11:24.196Z,37.61
2023-07-10T15:13:52.812Z,36.87
2023-07-10T15:16:23.517Z,37.90
2023-07-10T15:18:51.536Z,37.86
2023-07-10T15:21:21.639Z,35.92
2023-07-10T15:23:50.918Z,37.12
2023-07-10T15:26:18.759Z,35.89
2023-07-10T15:28:46.593Z,36.20
2023-07-10T15:31:15.427Z,36.52
2023-07-10T15:33:44.784Z,37.92
2023-07-10T15:36:19.259Z,37.11
2023-07-10T15:38:47.747Z,38.67
2023-07-10T15:41:23.586Z,39.09
2023-07-10T15:43:52.402Z,38.32
2023-07-10T15:46:20.244Z,41.88
2023-07-10T15:48:48.418Z,40.63
2023-07-10T15:51:23.743Z,40.91
2023-07-10T15:53:51.598Z,41.13
2023-07-10T15:56:20.859Z,43.16
2023-07-10T15:58:48.740Z,41.13
2023-07-10T16:01:21.072Z,41.40
2023-07-10T16:03:51.380Z,41.52
2023-07-10T16:06:19.323Z,41.89
2023-07-10T16:08:47.180Z,42.42
2023-07-10T16:11:18.129Z,41.85
2023-07-10T16:13:50.284Z,43.49
2023-07-10T16:16:20.901Z,43.77
2023-07-10T16:18:48.689Z,45.45
2023-07-10T16:21:20.854Z,48.07
2023-07-10T16:23:49.296Z,48.28
2023-07-10T16:26:18.783Z,44.39
2023-07-10T16:28:50.697Z,44.37
2023-07-10T16:31:28.448Z,44.73
2023-07-10T16:33:56.605Z,45.30
2023-07-10T16:36:24.394Z,45.08
2023-07-10T16:38:52.210Z,45.30
2023-07-10T16:41:22.184Z,44.71
2023-07-10T16:43:52.148Z,46.34
2023-07-10T16:46:20.425Z,47.02
2023-07-10T16:48:48.888Z,46.66
2023-07-10T16:51:31.331Z,46.93
2023-07-10T16:53:59.616Z,46.26
2023-07-10T16:56:27.885Z,46.95
2023-07-10T16:58:57.053Z,47.89
2023-07-10T17:01:27.407Z,47.98
2023-07-10T17:03:58.362Z,47.66
2023-07-10T17:06:28.066Z,48.48
2023-07-10T17:08:56.362Z,49.29
2023-07-10T17:11:27.072Z,53.01
2023-07-10T17:13:55.000Z,51.48
2023-07-10T17:16:24.355Z,50.38
2023-07-10T17:18:52.305Z,50.92
2023-07-10T17:21:20.169Z,52.17
2023-07-10T17:23:48.074Z,52.00
2023-07-10T17:26:18.656Z,53.26
2023-07-10T17:28:47.370Z,52.57
2023-07-10T17:31:21.933Z,52.65
2023-07-10T17:33:53.202Z,51.17
2023-07-10T17:36:22.173Z,52.39
2023-07-10T17:38:50.426Z,51.35
2023-07-10T17:41:21.534Z,52.30
2023-07-10T17:43:54.854Z,52.58
2023-07-10T17:46:23.069Z,52.95
2023-07-10T17:48:52.703Z,53.34
2023-07-10T17:51:31.722Z,54.94
2023-07-10T17:54:01.125Z,55.35
2023-07-10T17:56:29.260Z,55.28
2023-07-10T17:58:57.268Z,55.87
2023-07-10T18:01:27.492Z,56.20
2023-07-10T18:03:57.982Z,55.98
2023-07-10T18:06:26.879Z,57.67
2023-07-10T18:08:54.983Z,57.18
2023-07-10T18:11:28.931Z,58.50
2023-07-10T18:13:56.733Z,58.11
2023-07-10T18:16:24.622Z,60.96
2023-07-10T18:18:52.549Z,67.94
2023-07-10T18:21:25.407Z,75.65
2023-07-10T18:23:53.628Z,74.86
2023-07-10T18:26:23.789Z,64.49
2023-07-10T18:28:52.474Z,67.25
2023-07-10T18:31:23.623Z,72.49
2023-07-10T18:33:52.483Z,79.61
2023-07-10T18:36:22.364Z,72.27
2023-07-10T18:38:50.423Z,72.51
2023-07-10T18:41:24.219Z,71.96
2023-07-10T18:43:54.440Z,69.31
2023-07-10T18:46:24.399Z,72.89
2023-07-10T18:48:52.879Z,82.82
2023-07-10T18:51:25.663Z,78.60
2023-07-10T18:53:54.763Z,73.67
2023-07-10T18:56:22.818Z,80.02
2023-07-10T18:58:50.883Z,79.37
2023-07-10T19:01:21.684Z,83.84
2023-07-10T19:03:49.845Z,88.39
2023-07-10T19:06:23.725Z,90.59
2023-07-10T19:08:52.939Z,88.40
2023-07-10T19:11:21.042Z,96.37
2023-07-10T19:13:49.304Z,97.02
2023-07-10T19:16:23.164Z,100.00
2023-07-10T19:18:56.177Z,100.00
2023-07-10T19:21:24.466Z,100.00
2023-07-10T19:23:53.807Z,100.00
2023-07-10T19:26:22.521Z,100.00
2023-07-10T19:28:51.257Z,100.00
2023-07-10T19:31:22.379Z,100.00
2023-07-10T19:33:51.918Z,100.00
2023-07-10T19:36:27.339Z,100.00
2023-07-10T19:38:57.407Z,100.00
2023-07-10T19:41:25.829Z,100.00
2023-07-10T19:43:53.762Z,100.00
2023-07-10T19:46:24.133Z,100.00
2023-07-10T19:48:52.304Z,100.00
2023-07-10T19:51:20.176Z,100.00
2023-07-10T19:53:48.348Z,100.00
2023-07-10T19:56:22.236Z,100.00
2023-07-10T19:58:52.815Z,100.00
2023-07-10T20:01:21.783Z,100.00
2023-07-10T20:03:50.589Z,100.00
2023-07-10T20:06:30.460Z,100.00
2023-07-10T20:08:59.916Z,100.00
2023-07-10T20:11:29.131Z,100.00
2023-07-10T20:13:57.068Z,100.00
2023-07-10T20:16:27.794Z,100.00
2023-07-10T20:18:56.491Z,100.00
2023-07-10T20:21:25.336Z,100.00
2023-07-10T20:23:54.241Z,100.00
2023-07-10T20:26:24.281Z,100.00
2023-07-10T20:28:54.080Z,100.00
2023-07-10T20:31:22.016Z,100.00
2023-07-10T20:33:50.443Z,100.00
2023-07-10T20:36:22.027Z,100.00
2023-07-10T20:38:54.118Z,100.00
2023-07-10T20:41:24.008Z,100.00
2023-07-10T20:43:53.212Z,100.00
2023-07-10T20:46:23.968Z,100.00
2023-07-10T20:48:52.605Z,100.00
2023-07-10T20:51:23.812Z,100.00
2023-07-10T20:53:51.923Z,100.00
2023-07-10T20:56:25.987Z,100.00
2023-07-10T20:58:56.654Z,100.00
2023-07-10T21:01:33.174Z,100.00
2023-07-10T21:04:01.140Z,100.00
2023-07-10T21:06:34.469Z,100.00
2023-07-10T21:09:04.707Z,100.00
2023-07-10T21:11:35.394Z,100.00
2023-07-10T21:14:11.737Z,100.00
2023-07-10T21:16:39.774Z,100.00
2023-07-10T21:19:17.408Z,100.00
2023-07-10T21:21:45.266Z,100.00
2023-07-10T21:24:14.018Z,100.00
2023-07-10T21:26:42.430Z,100.00
2023-07-10T21:29:15.776Z,100.00
2023-07-10T21:31:43.849Z,100.00
2023-07-10T21:34:13.325Z,100.00
2023-07-10T21:36:41.629Z,100.00
2023-07-10T21:39:09.940Z,100.00
2023-07-10T21:41:42.846Z,100.00
2023-07-10T21:44:18.931Z,100.00
2023-07-10T21:46:46.810Z,100.00
2023-07-10T21:49:16.421Z,100.00
2023-07-10T21:51:45.282Z,100.00
2023-07-10T21:54:13.721Z,100.00
2023-07-10T21:56:45.109Z,100.00
2023-07-10T21:59:19.552Z,100.00
2023-07-10T22:01:48.246Z,100.00
2023-07-10T22:04:16.662Z,100.00
2023-07-10T22:06:46.006Z,100.00
2023-07-10T22:09:16.192Z,100.00
2023-07-10T22:11:45.572Z,100.00
2023-07-10T22:14:17.742Z,100.00
2023-07-10T22:16:46.393Z,100.00
2023-07-10T22:19:15.260Z,100.00
2023-07-10T22:21:43.718Z,100.00
2023-07-10T22:24:19.042Z,100.00
2023-07-10T22:26:47.036Z,100.00
2023-07-10T22:29:16.902Z,100.00
2023-07-10T22:31:45.943Z,100.00
2023-07-10T22:34:13.987Z,100.00
2023-07-10T22:36:43.565Z,100.00
2023-07-10T22:39:11.532Z,100.00
2023-07-10T22:41:39.544Z,100.00
2023-07-10T22:44:09.851Z,100.00
2023-07-10T22:46:43.392Z,100.00
2023-07-10T22:49:13.650Z,100.00
2023-07-10T22:51:42.642Z,100.00
2023-07-10T22:54:11.250Z,100.00
2023-07-10T22:56:41.443Z,100.00
2023-07-10T22:59:12.697Z,100.00
2023-07-10T23:01:45.106Z,100.00
2023-07-10T23:04:13.454Z,100.00
2023-07-10T23:06:41.301Z,100.00
2023-07-10T23:09:10.661Z,100.00
2023-07-10T23:11:38.492Z,100.00
2023-07-10T23:14:06.384Z,100.00
2023-07-10T23:16:34.237Z,100.00
2023-07-10T23:19:03.420Z,100.00
2023-07-10T23:21:31.580Z,100.00
2023-07-10T23:24:01.041Z,100.00
2023-07-10T23:26:29.075Z,100.00
2023-07-10T23:28:56.966Z,100.00
2023-07-10T23:31:26.703Z,100.00
2023-07-10T23:33:55.510Z,100.00
2023-07-10T23:36:27.194Z,100.00
2023-07-10T23:38:56.198Z,100.00
2023-07-10T23:41:24.286Z,100.00
2023-07-10T23:43:52.542Z,100.00
2023-07-10T23:46:20.385Z,100.00
2023-07-10T23:48:48.175Z,100.00
2023-07-10T23:51:16.827Z,100.00
2023-07-10T23:53:46.048Z,100.00
2023-07-10T23:56:24.178Z,100.00
2023-07-10T23:58:59.656Z,100.00
